CYQI

Yarmouth Airport

Yarmouth, , Canada
METAR CYQI 180208Z 35011G16KT 15SM OVC032 M05/M11 A3017 RMK SC8 SLP221
Observed Flight Rules
Dec-18 @ 02:08 UTC (56 minutes ago) Visual Flight Rules
Wind Visibility Clouds
350° at 11 knots
 Gusting to 16 knots
15 miles
  • Overcast at 3,200' AGL
Temperatures Readings
Current -5°C / 23°F
Dewpoint -11°C / 12°F
Humidity 63%
Altimeter 30.17" Hg
Pressure 1022.1 hPa
Elevation 43
METAR CYQI 180208Z 35011G16KT 15SM OVC032 M05/M11 A3017 RMK SC8 SLP221
Observed Flight Rules
Dec-18 @ 02:08 UTC
(56 minutes ago)
VFR
Wind Visibility
350° at 11 knots
 Gusting to 16 knots
15 miles
Clouds
  • Overcast at 3,200' AGL
Temperature Dewpoint
-5°C / 23°F -11°C / 12°F
Humidity Altimeter Pressure
63% 30.17" Hg 1022.1 hPa